Impacts TAF Board INFO
FOR SITUATIONAL AWARENESS. NOT TO BE USED FOR FLIGHT PLANNING PURPOSES.
IDs:

KDTW - Detroit Metro/Wayne, MI, US

Issued at 2056 UTC 12 Dec 2017
Updated at 2145 UTC 12 Dec 2017
Potential Impact None Slight Moderate High
Time<<13/10Z 13/11Z 13/12Z 13/13Z 13/14Z 13/15Z 13/16Z 13/17Z 13/18Z 13/19Z 13/20Z 13/21Z 13/22Z>>
Type PRVL PRVL PRVL PRVL PRVL PRVL PRVL PRVL PRVL PRVL PRVL PRVL PRVL
VIS >6 >6 >6 >6 >6 6 6 6 1 1 1 1 1
CIG 35 35 35 35 35 25 25 25 18 18 18 18 18
Cover BKN BKN BKN BKN BKN OVC OVC OVC OVC OVC OVC OVC OVC
FltCat VFR VFR VFR VFR VFR MVFR MVFR MVFR IFR IFR IFR IFR IFR
WX -- -- -- -- -- -SN -SN -SN -SN -SN -SN -SN -SN
WDir 220 220 220 220 220 180 180 180 140 140 140 140 140
WSpd 7 7 7 7 7 7 7 7 10 10 10 10 10
WGst -- -- -- -- -- -- -- -- -- -- -- -- --

Raw TAF
KDTW 122056Z 1221/1324 30016G26KT P6SM BKN050
  FM122300 30014G20KT P6SM SCT050
  FM130100 28012KT P6SM SCT040
  FM130900 22007KT P6SM BKN035
  FM131500 18007KT 6SM -SN OVC025
  FM131800 14010KT 1SM -SN OVC018


METAR Board
Radar Display
Forecast Discussion

FOR SITUATIONAL AWARENESS. NOT TO BE USED FOR FLIGHT PLANNING PURPOSES.